FD38 weather

Wellington Aero Club Airport
West Palm Beach, Florida, United States

Public forecast

Using degrees Fahrenheit for public forecast. Weather courtesy of forecast.io.

Closest aviation weather report (METAR) to Wellington Aero Club Airport

Closest report is Palm Beach International Airport, 10.9 nm (20.2 km) ENE. Retrieved 2020/06/06 21:53 UTC (1 hour ago):

KPBI 062153Z 15012KT 10SM SCT015 BKN023 OVC170 29/26 A2996 RMK AO2 SLP145 T02890256

Closest aviation forecast (TAF) to Wellington Aero Club Airport

Closest forecast is Palm Beach International Airport, 10.9 nm (20.2 km) ENE. Retrieved 2020/06/06 18:00 UTC (5 hours ago):

TAF KPBI 061755Z 0618/0718 15015G25KT P6SM VCSH SCT020 BKN035 OVC250 FM070000 15010KT P6SM FEW025 SCT050 BKN250 FM071500 15015KT P6SM VCSH SCT020 SCT035 BKN250